sensor_id;sensor_type;location;lat;lon;timestamp;P1;durP1;ratioP1;P2;durP2;ratioP2
68097;SDS011;54886;47.036;15.466;2023-03-13T00:01:12;15.38;;;6.90;;
68097;SDS011;54886;47.036;15.466;2023-03-13T00:03:38;12.70;;;6.50;;
68097;SDS011;54886;47.036;15.466;2023-03-13T00:06:04;11.07;;;5.80;;
68097;SDS011;54886;47.036;15.466;2023-03-13T00:08:30;13.15;;;6.07;;
68097;SDS011;54886;47.036;15.466;2023-03-13T00:10:55;9.93;;;5.60;;
68097;SDS011;54886;47.036;15.466;2023-03-13T00:13:21;15.07;;;5.68;;
68097;SDS011;54886;47.036;15.466;2023-03-13T00:15:46;10.93;;;5.32;;
68097;SDS011;54886;47.036;15.466;2023-03-13T00:18:12;9.70;;;5.70;;
68097;SDS011;54886;47.036;15.466;2023-03-13T00:20:38;10.20;;;5.38;;
68097;SDS011;54886;47.036;15.466;2023-03-13T00:23:04;8.57;;;5.10;;
68097;SDS011;54886;47.036;15.466;2023-03-13T00:25:29;10.10;;;5.35;;
68097;SDS011;54886;47.036;15.466;2023-03-13T00:27:54;8.63;;;5.25;;
68097;SDS011;54886;47.036;15.466;2023-03-13T00:30:20;9.23;;;5.05;;
68097;SDS011;54886;47.036;15.466;2023-03-13T00:32:45;9.80;;;5.68;;
68097;SDS011;54886;47.036;15.466;2023-03-13T00:35:14;10.60;;;5.55;;
68097;SDS011;54886;47.036;15.466;2023-03-13T00:37:40;10.43;;;6.00;;
68097;SDS011;54886;47.036;15.466;2023-03-13T00:40:06;10.50;;;5.28;;
68097;SDS011;54886;47.036;15.466;2023-03-13T00:42:33;8.95;;;5.53;;
68097;SDS011;54886;47.036;15.466;2023-03-13T00:45:00;10.40;;;5.47;;
68097;SDS011;54886;47.036;15.466;2023-03-13T00:47:25;10.48;;;5.30;;
68097;SDS011;54886;47.036;15.466;2023-03-13T00:49:51;10.18;;;5.68;;
68097;SDS011;54886;47.036;15.466;2023-03-13T00:52:16;15.43;;;5.80;;
68097;SDS011;54886;47.036;15.466;2023-03-13T00:54:41;10.00;;;5.55;;
68097;SDS011;54886;47.036;15.466;2023-03-13T00:57:07;9.63;;;5.65;;
68097;SDS011;54886;47.036;15.466;2023-03-13T00:59:33;12.27;;;5.30;;
68097;SDS011;54886;47.036;15.466;2023-03-13T01:01:59;10.77;;;5.45;;
68097;SDS011;54886;47.036;15.466;2023-03-13T01:04:25;11.18;;;5.25;;
68097;SDS011;54886;47.036;15.466;2023-03-13T01:06:50;10.82;;;5.50;;
68097;SDS011;54886;47.036;15.466;2023-03-13T01:09:15;10.18;;;5.35;;
68097;SDS011;54886;47.036;15.466;2023-03-13T01:11:42;12.52;;;6.05;;
68097;SDS011;54886;47.036;15.466;2023-03-13T01:14:10;11.82;;;6.00;;
68097;SDS011;54886;47.036;15.466;2023-03-13T01:16:37;9.48;;;5.07;;
68097;SDS011;54886;47.036;15.466;2023-03-13T01:19:05;9.15;;;5.20;;
68097;SDS011;54886;47.036;15.466;2023-03-13T01:21:32;10.85;;;5.40;;
68097;SDS011;54886;47.036;15.466;2023-03-13T01:23:58;10.20;;;5.22;;
68097;SDS011;54886;47.036;15.466;2023-03-13T01:26:23;14.23;;;5.63;;
68097;SDS011;54886;47.036;15.466;2023-03-13T01:28:50;12.05;;;6.20;;
68097;SDS011;54886;47.036;15.466;2023-03-13T01:31:17;11.93;;;5.85;;
68097;SDS011;54886;47.036;15.466;2023-03-13T01:33:51;12.40;;;5.63;;
68097;SDS011;54886;47.036;15.466;2023-03-13T01:36:19;9.30;;;4.82;;
68097;SDS011;54886;47.036;15.466;2023-03-13T01:38:48;10.38;;;5.53;;
68097;SDS011;54886;47.036;15.466;2023-03-13T01:41:14;11.70;;;5.47;;
68097;SDS011;54886;47.036;15.466;2023-03-13T01:43:40;11.80;;;5.65;;
68097;SDS011;54886;47.036;15.466;2023-03-13T01:46:15;17.02;;;5.97;;
68097;SDS011;54886;47.036;15.466;2023-03-13T01:48:44;13.77;;;6.10;;
68097;SDS011;54886;47.036;15.466;2023-03-13T01:54:10;11.40;;;5.40;;
68097;SDS011;54886;47.036;15.466;2023-03-13T01:56:36;12.07;;;5.60;;
68097;SDS011;54886;47.036;15.466;2023-03-13T02:01:32;10.35;;;5.57;;
68097;SDS011;54886;47.036;15.466;2023-03-13T02:03:58;9.52;;;5.13;;
68097;SDS011;54886;47.036;15.466;2023-03-13T02:06:24;9.13;;;5.03;;
68097;SDS011;54886;47.036;15.466;2023-03-13T02:08:55;10.20;;;5.40;;
68097;SDS011;54886;47.036;15.466;2023-03-13T02:14:00;13.02;;;5.53;;
68097;SDS011;54886;47.036;15.466;2023-03-13T02:16:28;11.20;;;5.45;;
68097;SDS011;54886;47.036;15.466;2023-03-13T02:18:54;10.98;;;5.40;;
68097;SDS011;54886;47.036;15.466;2023-03-13T02:21:30;10.00;;;5.55;;
68097;SDS011;54886;47.036;15.466;2023-03-13T02:24:06;10.98;;;5.20;;
68097;SDS011;54886;47.036;15.466;2023-03-13T02:26:38;11.35;;;5.35;;
68097;SDS011;54886;47.036;15.466;2023-03-13T02:29:03;10.27;;;5.95;;
68097;SDS011;54886;47.036;15.466;2023-03-13T02:31:29;9.52;;;5.40;;
68097;SDS011;54886;47.036;15.466;2023-03-13T02:33:55;10.85;;;5.50;;
68097;SDS011;54886;47.036;15.466;2023-03-13T02:36:24;11.45;;;5.68;;
68097;SDS011;54886;47.036;15.466;2023-03-13T02:38:54;11.05;;;5.68;;
68097;SDS011;54886;47.036;15.466;2023-03-13T02:41:22;11.80;;;5.68;;
68097;SDS011;54886;47.036;15.466;2023-03-13T02:43:49;11.15;;;5.78;;
68097;SDS011;54886;47.036;15.466;2023-03-13T02:46:16;8.88;;;5.47;;
68097;SDS011;54886;47.036;15.466;2023-03-13T02:48:44;10.30;;;5.43;;
68097;SDS011;54886;47.036;15.466;2023-03-13T02:53:53;10.73;;;5.63;;
68097;SDS011;54886;47.036;15.466;2023-03-13T02:56:21;13.77;;;6.10;;
68097;SDS011;54886;47.036;15.466;2023-03-13T02:58:49;11.82;;;5.72;;
68097;SDS011;54886;47.036;15.466;2023-03-13T03:01:15;14.32;;;6.63;;
68097;SDS011;54886;47.036;15.466;2023-03-13T03:03:40;12.45;;;6.30;;
68097;SDS011;54886;47.036;15.466;2023-03-13T03:06:06;21.33;;;9.25;;
68097;SDS011;54886;47.036;15.466;2023-03-13T03:08:31;23.80;;;9.57;;
68097;SDS011;54886;47.036;15.466;2023-03-13T03:10:57;15.15;;;8.07;;
68097;SDS011;54886;47.036;15.466;2023-03-13T03:13:23;12.88;;;6.35;;
68097;SDS011;54886;47.036;15.466;2023-03-13T03:15:48;10.38;;;5.95;;
68097;SDS011;54886;47.036;15.466;2023-03-13T03:18:14;11.60;;;6.13;;
68097;SDS011;54886;47.036;15.466;2023-03-13T03:20:39;12.68;;;6.15;;
68097;SDS011;54886;47.036;15.466;2023-03-13T03:23:04;10.30;;;5.93;;
68097;SDS011;54886;47.036;15.466;2023-03-13T03:25:30;10.35;;;5.97;;
68097;SDS011;54886;47.036;15.466;2023-03-13T03:27:55;11.38;;;5.68;;
68097;SDS011;54886;47.036;15.466;2023-03-13T03:30:20;11.82;;;5.53;;
68097;SDS011;54886;47.036;15.466;2023-03-13T03:32:46;9.90;;;5.82;;
68097;SDS011;54886;47.036;15.466;2023-03-13T03:35:11;9.68;;;5.60;;
68097;SDS011;54886;47.036;15.466;2023-03-13T03:37:36;9.57;;;5.63;;
68097;SDS011;54886;47.036;15.466;2023-03-13T03:40:02;11.18;;;5.78;;
68097;SDS011;54886;47.036;15.466;2023-03-13T03:42:30;11.65;;;5.95;;
68097;SDS011;54886;47.036;15.466;2023-03-13T03:44:55;12.77;;;5.60;;
68097;SDS011;54886;47.036;15.466;2023-03-13T03:47:21;11.35;;;5.63;;
68097;SDS011;54886;47.036;15.466;2023-03-13T03:49:46;9.38;;;5.22;;
68097;SDS011;54886;47.036;15.466;2023-03-13T03:52:12;10.40;;;5.68;;
68097;SDS011;54886;47.036;15.466;2023-03-13T03:54:37;10.02;;;5.65;;
68097;SDS011;54886;47.036;15.466;2023-03-13T03:57:02;9.68;;;4.82;;
68097;SDS011;54886;47.036;15.466;2023-03-13T03:59:28;11.30;;;5.30;;
68097;SDS011;54886;47.036;15.466;2023-03-13T04:01:53;9.77;;;5.88;;
68097;SDS011;54886;47.036;15.466;2023-03-13T04:04:19;13.95;;;5.47;;
68097;SDS011;54886;47.036;15.466;2023-03-13T04:06:44;9.65;;;5.68;;
68097;SDS011;54886;47.036;15.466;2023-03-13T04:09:10;10.05;;;5.32;;
68097;SDS011;54886;47.036;15.466;2023-03-13T04:11:35;11.25;;;6.13;;
68097;SDS011;54886;47.036;15.466;2023-03-13T04:14:00;9.80;;;5.18;;
68097;SDS011;54886;47.036;15.466;2023-03-13T04:16:26;11.85;;;5.50;;
68097;SDS011;54886;47.036;15.466;2023-03-13T04:18:51;9.30;;;4.75;;
68097;SDS011;54886;47.036;15.466;2023-03-13T04:21:16;9.85;;;5.07;;
68097;SDS011;54886;47.036;15.466;2023-03-13T04:23:42;8.68;;;5.30;;
68097;SDS011;54886;47.036;15.466;2023-03-13T04:26:07;12.18;;;4.70;;
68097;SDS011;54886;47.036;15.466;2023-03-13T04:28:33;8.38;;;4.68;;
68097;SDS011;54886;47.036;15.466;2023-03-13T04:30:58;12.77;;;5.00;;
68097;SDS011;54886;47.036;15.466;2023-03-13T04:33:25;9.00;;;4.80;;
68097;SDS011;54886;47.036;15.466;2023-03-13T04:35:50;7.88;;;4.68;;
68097;SDS011;54886;47.036;15.466;2023-03-13T04:38:16;10.65;;;4.38;;
68097;SDS011;54886;47.036;15.466;2023-03-13T04:40:41;9.95;;;5.15;;
68097;SDS011;54886;47.036;15.466;2023-03-13T04:43:07;8.23;;;4.45;;
68097;SDS011;54886;47.036;15.466;2023-03-13T04:45:33;8.60;;;4.53;;
68097;SDS011;54886;47.036;15.466;2023-03-13T04:47:58;10.63;;;4.95;;
68097;SDS011;54886;47.036;15.466;2023-03-13T04:50:24;8.52;;;4.68;;
68097;SDS011;54886;47.036;15.466;2023-03-13T04:52:49;9.23;;;4.97;;
68097;SDS011;54886;47.036;15.466;2023-03-13T04:55:15;8.80;;;4.68;;
68097;SDS011;54886;47.036;15.466;2023-03-13T04:57:40;8.32;;;4.35;;
68097;SDS011;54886;47.036;15.466;2023-03-13T05:00:06;9.63;;;4.90;;
68097;SDS011;54886;47.036;15.466;2023-03-13T05:02:32;8.77;;;5.10;;
68097;SDS011;54886;47.036;15.466;2023-03-13T05:04:57;10.25;;;5.20;;
68097;SDS011;54886;47.036;15.466;2023-03-13T05:07:23;8.60;;;4.80;;
68097;SDS011;54886;47.036;15.466;2023-03-13T05:09:48;9.80;;;5.13;;
68097;SDS011;54886;47.036;15.466;2023-03-13T05:12:13;9.25;;;5.15;;
68097;SDS011;54886;47.036;15.466;2023-03-13T05:14:39;11.18;;;5.28;;
68097;SDS011;54886;47.036;15.466;2023-03-13T05:17:04;10.68;;;4.78;;
68097;SDS011;54886;47.036;15.466;2023-03-13T05:19:29;9.68;;;5.22;;
68097;SDS011;54886;47.036;15.466;2023-03-13T05:21:55;9.77;;;5.25;;
68097;SDS011;54886;47.036;15.466;2023-03-13T05:24:20;11.52;;;5.30;;
68097;SDS011;54886;47.036;15.466;2023-03-13T05:26:46;9.82;;;5.57;;
68097;SDS011;54886;47.036;15.466;2023-03-13T05:29:11;11.45;;;5.20;;
68097;SDS011;54886;47.036;15.466;2023-03-13T05:31:36;9.93;;;5.32;;
68097;SDS011;54886;47.036;15.466;2023-03-13T05:34:02;10.40;;;5.38;;
68097;SDS011;54886;47.036;15.466;2023-03-13T05:36:27;11.60;;;4.57;;
68097;SDS011;54886;47.036;15.466;2023-03-13T05:38:52;9.70;;;5.55;;
68097;SDS011;54886;47.036;15.466;2023-03-13T05:41:18;9.73;;;4.90;;
68097;SDS011;54886;47.036;15.466;2023-03-13T05:43:43;10.18;;;5.13;;
68097;SDS011;54886;47.036;15.466;2023-03-13T05:46:08;10.73;;;5.30;;
68097;SDS011;54886;47.036;15.466;2023-03-13T05:48:34;10.27;;;5.32;;
68097;SDS011;54886;47.036;15.466;2023-03-13T05:50:59;10.95;;;5.35;;
68097;SDS011;54886;47.036;15.466;2023-03-13T05:53:24;12.85;;;5.75;;
68097;SDS011;54886;47.036;15.466;2023-03-13T05:55:50;9.95;;;5.40;;
68097;SDS011;54886;47.036;15.466;2023-03-13T05:58:15;11.00;;;5.60;;
68097;SDS011;54886;47.036;15.466;2023-03-13T06:00:40;13.38;;;6.88;;
68097;SDS011;54886;47.036;15.466;2023-03-13T06:03:08;11.02;;;6.10;;
68097;SDS011;54886;47.036;15.466;2023-03-13T06:05:33;12.48;;;5.97;;
68097;SDS011;54886;47.036;15.466;2023-03-13T06:07:59;10.52;;;6.00;;
68097;SDS011;54886;47.036;15.466;2023-03-13T06:10:25;10.38;;;5.40;;
68097;SDS011;54886;47.036;15.466;2023-03-13T06:12:51;12.00;;;5.95;;
68097;SDS011;54886;47.036;15.466;2023-03-13T06:15:17;13.00;;;5.97;;
68097;SDS011;54886;47.036;15.466;2023-03-13T06:17:43;10.73;;;5.88;;
68097;SDS011;54886;47.036;15.466;2023-03-13T06:20:08;11.18;;;5.97;;
68097;SDS011;54886;47.036;15.466;2023-03-13T06:22:34;16.55;;;5.82;;
68097;SDS011;54886;47.036;15.466;2023-03-13T06:24:59;11.93;;;5.57;;
68097;SDS011;54886;47.036;15.466;2023-03-13T06:27:25;12.43;;;6.03;;
68097;SDS011;54886;47.036;15.466;2023-03-13T06:29:50;11.93;;;6.25;;
68097;SDS011;54886;47.036;15.466;2023-03-13T06:32:15;14.95;;;6.55;;
68097;SDS011;54886;47.036;15.466;2023-03-13T06:34:41;12.40;;;6.32;;
68097;SDS011;54886;47.036;15.466;2023-03-13T06:37:06;11.68;;;6.00;;
68097;SDS011;54886;47.036;15.466;2023-03-13T06:39:32;13.35;;;6.13;;
68097;SDS011;54886;47.036;15.466;2023-03-13T06:41:58;17.60;;;6.63;;
68097;SDS011;54886;47.036;15.466;2023-03-13T06:44:23;10.93;;;6.53;;
68097;SDS011;54886;47.036;15.466;2023-03-13T06:46:48;13.77;;;6.10;;
68097;SDS011;54886;47.036;15.466;2023-03-13T06:49:14;11.10;;;5.93;;
68097;SDS011;54886;47.036;15.466;2023-03-13T06:51:39;10.70;;;5.82;;
68097;SDS011;54886;47.036;15.466;2023-03-13T06:54:05;12.55;;;6.38;;
68097;SDS011;54886;47.036;15.466;2023-03-13T06:56:30;12.10;;;6.38;;
68097;SDS011;54886;47.036;15.466;2023-03-13T06:58:56;13.77;;;6.00;;
68097;SDS011;54886;47.036;15.466;2023-03-13T07:01:21;12.43;;;6.07;;
68097;SDS011;54886;47.036;15.466;2023-03-13T07:03:47;13.95;;;7.35;;
68097;SDS011;54886;47.036;15.466;2023-03-13T07:06:13;13.85;;;6.30;;
68097;SDS011;54886;47.036;15.466;2023-03-13T07:08:40;14.10;;;7.13;;
68097;SDS011;54886;47.036;15.466;2023-03-13T07:11:07;14.48;;;6.43;;
68097;SDS011;54886;47.036;15.466;2023-03-13T07:13:34;15.45;;;6.72;;
68097;SDS011;54886;47.036;15.466;2023-03-13T07:16:04;11.95;;;6.82;;
68097;SDS011;54886;47.036;15.466;2023-03-13T07:18:31;14.80;;;6.40;;
68097;SDS011;54886;47.036;15.466;2023-03-13T07:20:58;12.80;;;5.88;;
68097;SDS011;54886;47.036;15.466;2023-03-13T07:23:25;11.13;;;6.00;;
68097;SDS011;54886;47.036;15.466;2023-03-13T07:25:55;11.80;;;6.68;;
68097;SDS011;54886;47.036;15.466;2023-03-13T07:28:29;12.90;;;6.55;;
68097;SDS011;54886;47.036;15.466;2023-03-13T07:31:02;15.00;;;6.32;;
68097;SDS011;54886;47.036;15.466;2023-03-13T07:33:35;11.88;;;5.95;;
68097;SDS011;54886;47.036;15.466;2023-03-13T07:36:00;10.05;;;5.70;;
68097;SDS011;54886;47.036;15.466;2023-03-13T07:38:26;11.82;;;7.28;;
68097;SDS011;54886;47.036;15.466;2023-03-13T07:40:52;15.02;;;6.00;;
68097;SDS011;54886;47.036;15.466;2023-03-13T07:43:19;11.65;;;6.18;;
68097;SDS011;54886;47.036;15.466;2023-03-13T07:46:19;15.50;;;6.70;;
68097;SDS011;54886;47.036;15.466;2023-03-13T07:48:39;15.27;;;6.45;;
68097;SDS011;54886;47.036;15.466;2023-03-13T07:51:07;13.40;;;6.30;;
68097;SDS011;54886;47.036;15.466;2023-03-13T07:53:35;12.73;;;6.72;;
68097;SDS011;54886;47.036;15.466;2023-03-13T07:56:02;11.98;;;6.78;;
68097;SDS011;54886;47.036;15.466;2023-03-13T07:58:30;12.95;;;7.30;;
68097;SDS011;54886;47.036;15.466;2023-03-13T08:00:57;13.43;;;6.90;;
68097;SDS011;54886;47.036;15.466;2023-03-13T08:03:23;11.15;;;6.40;;
68097;SDS011;54886;47.036;15.466;2023-03-13T08:08:23;12.35;;;6.80;;
68097;SDS011;54886;47.036;15.466;2023-03-13T08:10:49;16.70;;;6.88;;
68097;SDS011;54886;47.036;15.466;2023-03-13T08:13:14;13.15;;;7.18;;
68097;SDS011;54886;47.036;15.466;2023-03-13T08:15:39;11.90;;;6.47;;
68097;SDS011;54886;47.036;15.466;2023-03-13T08:18:05;14.20;;;7.22;;
68097;SDS011;54886;47.036;15.466;2023-03-13T08:20:30;14.70;;;6.43;;
68097;SDS011;54886;47.036;15.466;2023-03-13T08:22:55;15.40;;;5.93;;
68097;SDS011;54886;47.036;15.466;2023-03-13T08:25:21;11.63;;;6.10;;
68097;SDS011;54886;47.036;15.466;2023-03-13T08:27:46;11.88;;;6.10;;
68097;SDS011;54886;47.036;15.466;2023-03-13T08:30:12;9.40;;;5.68;;
68097;SDS011;54886;47.036;15.466;2023-03-13T08:32:39;10.90;;;6.20;;
68097;SDS011;54886;47.036;15.466;2023-03-13T08:35:05;9.43;;;5.40;;
68097;SDS011;54886;47.036;15.466;2023-03-13T08:37:30;10.38;;;5.53;;
68097;SDS011;54886;47.036;15.466;2023-03-13T08:39:56;16.05;;;5.97;;
68097;SDS011;54886;47.036;15.466;2023-03-13T08:42:22;9.95;;;6.20;;
68097;SDS011;54886;47.036;15.466;2023-03-13T08:44:47;11.45;;;6.53;;
68097;SDS011;54886;47.036;15.466;2023-03-13T08:47:13;13.43;;;5.80;;
68097;SDS011;54886;47.036;15.466;2023-03-13T08:49:39;13.38;;;6.00;;
68097;SDS011;54886;47.036;15.466;2023-03-13T08:52:04;11.95;;;6.38;;
68097;SDS011;54886;47.036;15.466;2023-03-13T08:54:31;11.55;;;6.05;;
68097;SDS011;54886;47.036;15.466;2023-03-13T08:56:56;10.07;;;5.95;;
68097;SDS011;54886;47.036;15.466;2023-03-13T08:59:23;14.15;;;6.72;;
68097;SDS011;54886;47.036;15.466;2023-03-13T09:01:49;11.55;;;6.38;;
68097;SDS011;54886;47.036;15.466;2023-03-13T09:04:14;14.60;;;6.68;;
68097;SDS011;54886;47.036;15.466;2023-03-13T09:06:40;13.10;;;6.22;;
68097;SDS011;54886;47.036;15.466;2023-03-13T09:09:05;17.17;;;6.30;;
68097;SDS011;54886;47.036;15.466;2023-03-13T09:11:32;11.55;;;6.80;;
68097;SDS011;54886;47.036;15.466;2023-03-13T09:13:59;13.27;;;6.45;;
68097;SDS011;54886;47.036;15.466;2023-03-13T09:16:26;13.05;;;6.70;;
68097;SDS011;54886;47.036;15.466;2023-03-13T09:18:53;11.60;;;6.55;;
68097;SDS011;54886;47.036;15.466;2023-03-13T09:21:21;12.63;;;6.43;;
68097;SDS011;54886;47.036;15.466;2023-03-13T09:26:14;12.13;;;6.18;;
68097;SDS011;54886;47.036;15.466;2023-03-13T09:28:40;16.55;;;6.25;;
68097;SDS011;54886;47.036;15.466;2023-03-13T09:31:48;12.45;;;6.32;;
68097;SDS011;54886;47.036;15.466;2023-03-13T09:33:55;10.63;;;5.90;;
68097;SDS011;54886;47.036;15.466;2023-03-13T09:36:21;11.98;;;5.82;;
68097;SDS011;54886;47.036;15.466;2023-03-13T09:38:48;13.52;;;6.05;;
68097;SDS011;54886;47.036;15.466;2023-03-13T09:46:58;8.68;;;4.68;;
68097;SDS011;54886;47.036;15.466;2023-03-13T09:49:28;8.52;;;4.90;;
68097;SDS011;54886;47.036;15.466;2023-03-13T09:55:03;13.07;;;4.95;;
68097;SDS011;54886;47.036;15.466;2023-03-13T09:57:37;10.90;;;4.82;;
68097;SDS011;54886;47.036;15.466;2023-03-13T10:00:11;9.05;;;5.13;;
68097;SDS011;54886;47.036;15.466;2023-03-13T10:02:39;13.52;;;4.90;;
68097;SDS011;54886;47.036;15.466;2023-03-13T10:05:17;10.77;;;4.90;;
68097;SDS011;54886;47.036;15.466;2023-03-13T10:07:47;9.15;;;4.90;;
68097;SDS011;54886;47.036;15.466;2023-03-13T10:10:14;10.63;;;4.95;;
68097;SDS011;54886;47.036;15.466;2023-03-13T10:12:50;11.27;;;5.18;;
68097;SDS011;54886;47.036;15.466;2023-03-13T10:17:54;8.20;;;4.55;;
68097;SDS011;54886;47.036;15.466;2023-03-13T10:23:02;7.80;;;4.57;;
68097;SDS011;54886;47.036;15.466;2023-03-13T10:25:38;8.35;;;4.40;;
68097;SDS011;54886;47.036;15.466;2023-03-13T10:28:11;8.60;;;4.57;;
68097;SDS011;54886;47.036;15.466;2023-03-13T10:30:37;8.52;;;4.50;;
68097;SDS011;54886;47.036;15.466;2023-03-13T10:35:38;8.95;;;4.05;;
68097;SDS011;54886;47.036;15.466;2023-03-13T10:38:08;7.95;;;4.30;;
68097;SDS011;54886;47.036;15.466;2023-03-13T10:40:36;12.55;;;4.55;;
68097;SDS011;54886;47.036;15.466;2023-03-13T10:43:03;7.88;;;4.28;;
68097;SDS011;54886;47.036;15.466;2023-03-13T10:45:35;8.30;;;4.50;;
68097;SDS011;54886;47.036;15.466;2023-03-13T10:48:15;9.88;;;4.63;;
68097;SDS011;54886;47.036;15.466;2023-03-13T10:50:48;6.85;;;3.90;;
68097;SDS011;54886;47.036;15.466;2023-03-13T10:53:23;10.18;;;4.05;;
68097;SDS011;54886;47.036;15.466;2023-03-13T10:56:18;7.50;;;4.07;;
68097;SDS011;54886;47.036;15.466;2023-03-13T10:58:53;6.63;;;3.80;;
68097;SDS011;54886;47.036;15.466;2023-03-13T11:03:49;6.40;;;3.50;;
68097;SDS011;54886;47.036;15.466;2023-03-13T11:06:32;7.50;;;3.33;;
68097;SDS011;54886;47.036;15.466;2023-03-13T11:09:14;7.80;;;3.90;;
68097;SDS011;54886;47.036;15.466;2023-03-13T11:14:14;8.35;;;3.58;;
68097;SDS011;54886;47.036;15.466;2023-03-13T11:16:45;7.53;;;3.50;;
68097;SDS011;54886;47.036;15.466;2023-03-13T11:19:22;10.05;;;3.55;;
68097;SDS011;54886;47.036;15.466;2023-03-13T11:33:00;5.90;;;3.60;;
68097;SDS011;54886;47.036;15.466;2023-03-13T11:38:11;5.93;;;3.50;;
68097;SDS011;54886;47.036;15.466;2023-03-13T11:47:01;6.15;;;3.15;;
68097;SDS011;54886;47.036;15.466;2023-03-13T11:49:56;5.88;;;3.40;;
68097;SDS011;54886;47.036;15.466;2023-03-13T11:55:49;7.50;;;4.05;;
68097;SDS011;54886;47.036;15.466;2023-03-13T12:01:30;6.22;;;3.65;;
68097;SDS011;54886;47.036;15.466;2023-03-13T12:09:26;7.88;;;3.85;;
68097;SDS011;54886;47.036;15.466;2023-03-13T12:17:05;6.38;;;3.72;;
68097;SDS011;54886;47.036;15.466;2023-03-13T12:22:13;7.20;;;3.70;;
68097;SDS011;54886;47.036;15.466;2023-03-13T12:25:01;7.45;;;3.60;;
68097;SDS011;54886;47.036;15.466;2023-03-13T12:27:30;6.85;;;3.15;;
68097;SDS011;54886;47.036;15.466;2023-03-13T12:30:22;5.85;;;3.53;;
68097;SDS011;54886;47.036;15.466;2023-03-13T12:33:01;8.00;;;3.40;;
68097;SDS011;54886;47.036;15.466;2023-03-13T12:35:51;7.35;;;3.55;;
68097;SDS011;54886;47.036;15.466;2023-03-13T12:38:27;5.55;;;3.08;;
68097;SDS011;54886;47.036;15.466;2023-03-13T12:43:42;6.57;;;3.22;;
68097;SDS011;54886;47.036;15.466;2023-03-13T12:51:37;4.85;;;2.72;;
68097;SDS011;54886;47.036;15.466;2023-03-13T12:59:27;8.73;;;2.90;;
68097;SDS011;54886;47.036;15.466;2023-03-13T13:02:00;5.57;;;2.85;;
68097;SDS011;54886;47.036;15.466;2023-03-13T13:04:29;5.97;;;2.73;;
68097;SDS011;54886;47.036;15.466;2023-03-13T13:09:32;5.57;;;3.10;;
68097;SDS011;54886;47.036;15.466;2023-03-13T13:12:19;7.50;;;3.20;;
68097;SDS011;54886;47.036;15.466;2023-03-13T13:19:55;7.60;;;3.40;;
68097;SDS011;54886;47.036;15.466;2023-03-13T13:30:46;6.28;;;3.13;;
68097;SDS011;54886;47.036;15.466;2023-03-13T13:36:24;5.88;;;3.00;;
68097;SDS011;54886;47.036;15.466;2023-03-13T13:38:32;5.70;;;3.22;;
68097;SDS011;54886;47.036;15.466;2023-03-13T13:43:48;7.50;;;3.17;;
68097;SDS011;54886;47.036;15.466;2023-03-13T13:51:38;5.78;;;3.03;;
68097;SDS011;54886;47.036;15.466;2023-03-13T13:56:44;5.35;;;3.00;;
68097;SDS011;54886;47.036;15.466;2023-03-13T14:02:35;6.63;;;3.40;;
68097;SDS011;54886;47.036;15.466;2023-03-13T14:07:10;5.18;;;2.80;;
68097;SDS011;54886;47.036;15.466;2023-03-13T14:12:46;5.25;;;2.97;;
68097;SDS011;54886;47.036;15.466;2023-03-13T14:15:17;5.47;;;3.00;;
68097;SDS011;54886;47.036;15.466;2023-03-13T14:17:48;6.03;;;3.20;;
68097;SDS011;54886;47.036;15.466;2023-03-13T14:20:22;8.95;;;3.15;;
68097;SDS011;54886;47.036;15.466;2023-03-13T14:22:48;6.88;;;3.10;;
68097;SDS011;54886;47.036;15.466;2023-03-13T14:25:15;9.27;;;3.30;;
68097;SDS011;54886;47.036;15.466;2023-03-13T14:27:42;8.48;;;2.85;;
68097;SDS011;54886;47.036;15.466;2023-03-13T14:30:08;6.53;;;3.45;;
68097;SDS011;54886;47.036;15.466;2023-03-13T14:32:36;8.15;;;3.22;;
68097;SDS011;54886;47.036;15.466;2023-03-13T14:35:03;7.22;;;3.10;;
68097;SDS011;54886;47.036;15.466;2023-03-13T14:37:33;7.07;;;3.42;;
68097;SDS011;54886;47.036;15.466;2023-03-13T14:40:05;8.60;;;3.00;;
68097;SDS011;54886;47.036;15.466;2023-03-13T14:42:42;5.30;;;3.00;;
68097;SDS011;54886;47.036;15.466;2023-03-13T14:45:11;8.13;;;3.13;;
68097;SDS011;54886;47.036;15.466;2023-03-13T14:47:39;7.20;;;3.40;;
68097;SDS011;54886;47.036;15.466;2023-03-13T14:50:09;9.13;;;3.13;;
68097;SDS011;54886;47.036;15.466;2023-03-13T14:52:40;6.47;;;3.08;;
68097;SDS011;54886;47.036;15.466;2023-03-13T14:57:54;8.25;;;3.45;;
68097;SDS011;54886;47.036;15.466;2023-03-13T15:03:11;6.88;;;3.00;;
68097;SDS011;54886;47.036;15.466;2023-03-13T15:05:46;8.57;;;3.42;;
68097;SDS011;54886;47.036;15.466;2023-03-13T15:08:23;6.93;;;3.10;;
68097;SDS011;54886;47.036;15.466;2023-03-13T15:10:49;7.07;;;3.38;;
68097;SDS011;54886;47.036;15.466;2023-03-13T15:13:34;7.10;;;3.35;;
68097;SDS011;54886;47.036;15.466;2023-03-13T15:16:01;8.13;;;3.70;;
68097;SDS011;54886;47.036;15.466;2023-03-13T15:18:31;8.90;;;3.50;;
68097;SDS011;54886;47.036;15.466;2023-03-13T15:23:47;6.25;;;2.95;;
68097;SDS011;54886;47.036;15.466;2023-03-13T15:26:15;6.75;;;3.10;;
68097;SDS011;54886;47.036;15.466;2023-03-13T15:28:40;10.13;;;3.38;;
68097;SDS011;54886;47.036;15.466;2023-03-13T15:31:05;7.60;;;3.00;;
68097;SDS011;54886;47.036;15.466;2023-03-13T15:33:31;6.05;;;3.20;;
68097;SDS011;54886;47.036;15.466;2023-03-13T15:35:58;6.47;;;3.35;;
68097;SDS011;54886;47.036;15.466;2023-03-13T15:38:24;4.93;;;2.92;;
68097;SDS011;54886;47.036;15.466;2023-03-13T15:40:51;6.20;;;3.37;;
68097;SDS011;54886;47.036;15.466;2023-03-13T15:43:17;7.43;;;3.00;;
68097;SDS011;54886;47.036;15.466;2023-03-13T15:45:44;7.00;;;3.30;;
68097;SDS011;54886;47.036;15.466;2023-03-13T15:50:42;8.13;;;3.30;;
68097;SDS011;54886;47.036;15.466;2023-03-13T15:53:18;9.68;;;3.47;;
68097;SDS011;54886;47.036;15.466;2023-03-13T15:55:45;6.18;;;3.42;;
68097;SDS011;54886;47.036;15.466;2023-03-13T15:58:13;11.00;;;3.55;;
68097;SDS011;54886;47.036;15.466;2023-03-13T16:00:39;9.80;;;3.38;;
68097;SDS011;54886;47.036;15.466;2023-03-13T16:03:05;6.50;;;3.20;;
68097;SDS011;54886;47.036;15.466;2023-03-13T16:05:30;9.32;;;3.17;;
68097;SDS011;54886;47.036;15.466;2023-03-13T16:07:56;4.88;;;2.85;;
68097;SDS011;54886;47.036;15.466;2023-03-13T16:10:23;5.47;;;2.88;;
68097;SDS011;54886;47.036;15.466;2023-03-13T16:12:50;7.13;;;3.30;;
68097;SDS011;54886;47.036;15.466;2023-03-13T16:15:16;8.02;;;3.40;;
68097;SDS011;54886;47.036;15.466;2023-03-13T16:17:41;10.00;;;3.50;;
68097;SDS011;54886;47.036;15.466;2023-03-13T16:20:14;6.80;;;3.38;;
68097;SDS011;54886;47.036;15.466;2023-03-13T16:22:42;8.23;;;3.20;;
68097;SDS011;54886;47.036;15.466;2023-03-13T16:25:08;6.60;;;3.00;;
68097;SDS011;54886;47.036;15.466;2023-03-13T16:27:34;10.55;;;3.38;;
68097;SDS011;54886;47.036;15.466;2023-03-13T16:30:00;9.32;;;3.40;;
68097;SDS011;54886;47.036;15.466;2023-03-13T16:32:26;11.40;;;3.08;;
68097;SDS011;54886;47.036;15.466;2023-03-13T16:34:51;6.82;;;3.10;;
68097;SDS011;54886;47.036;15.466;2023-03-13T16:37:17;9.20;;;3.42;;
68097;SDS011;54886;47.036;15.466;2023-03-13T16:39:44;8.70;;;3.42;;
68097;SDS011;54886;47.036;15.466;2023-03-13T16:42:11;11.35;;;3.42;;
68097;SDS011;54886;47.036;15.466;2023-03-13T16:44:36;6.00;;;3.25;;
68097;SDS011;54886;47.036;15.466;2023-03-13T16:47:07;9.05;;;3.33;;
68097;SDS011;54886;47.036;15.466;2023-03-13T16:49:40;9.18;;;3.53;;
68097;SDS011;54886;47.036;15.466;2023-03-13T16:52:08;8.18;;;3.70;;